Fontana Observed Data For Previous 48 Hours

Caption
Day and Hour Reservoir Elevation (behind dam)* Tailwater Elevation (below dam)* Average Hourly Discharge*
12/10/2018 2 AM EST 1,664.35 1,279.68 6,953
12/10/2018 3 AM EST 1,664.38 1,279.60 6,952
12/10/2018 4 AM EST 1,664.39 1,279.65 6,957
12/10/2018 5 AM EST 1,664.40 1,279.60 6,953
12/10/2018 6 AM EST 1,664.42 1,279.64 6,953
12/10/2018 7 AM EST 1,664.45 1,279.62 6,947
12/10/2018 8 AM EST 1,664.44 1,279.67 6,952
12/10/2018 9 AM EST 1,664.45 1,279.68 6,965
12/10/2018 10 AM EST 1,664.47 1,279.63 6,958
12/10/2018 11 AM EST 1,664.46 1,279.73 6,958
12/10/2018 12 PM EST 1,664.46 1,279.63 6,950
12/10/2018 1 PM EST 1,664.46 1,279.65 6,955
12/10/2018 2 PM EST 1,664.47 1,279.67 6,962
12/10/2018 3 PM EST 1,664.46 1,279.65 6,960
12/10/2018 4 PM EST 1,664.47 1,279.64 6,944
12/10/2018 5 PM EST 1,664.48 1,279.65 6,952
12/10/2018 6 PM EST 1,664.48 1,279.67 6,955
12/10/2018 7 PM EST 1,664.48 1,279.65 6,953
12/10/2018 8 PM EST 1,664.49 1,279.67 6,955
12/10/2018 9 PM EST 1,664.49 1,279.72 6,958
12/10/2018 10 PM EST 1,664.48 1,279.73 6,956
12/10/2018 11 PM EST 1,664.48 1,279.68 6,945
12/11/2018 12 AM EST 1,664.49 1,279.75 6,949
12/11/2018 1 AM EST 1,664.49 1,279.74 6,957
12/11/2018 2 AM EST 1,664.49 1,279.81 6,956
12/11/2018 3 AM EST 1,664.49 1,279.73 6,952
12/11/2018 4 AM EST 1,664.49 1,279.74 6,948
12/11/2018 5 AM EST 1,664.49 1,279.70 6,955
12/11/2018 6 AM EST 1,664.48 1,279.68 6,956
12/11/2018 7 AM EST 1,664.50 1,279.72 6,962
12/11/2018 8 AM EST 1,664.50 1,279.71 6,944
12/11/2018 9 AM EST 1,664.49 1,279.69 6,948
12/11/2018 10 AM EST 1,664.49 1,279.69 6,963
12/11/2018 11 AM EST 1,664.49 1,279.68 6,957
12/11/2018 12 PM EST 1,664.50 1,277.54 4,165
12/11/2018 1 PM EST 1,664.53 1,277.45 3,520
12/11/2018 2 PM EST 1,664.54 1,277.45 3,527
12/11/2018 3 PM EST 1,664.53 1,277.75 6,382
12/11/2018 4 PM EST 1,664.49 1,277.80 10,374
12/11/2018 5 PM EST 1,664.48 1,277.78 10,378
12/11/2018 6 PM EST 1,664.43 1,277.75 10,380
12/11/2018 7 PM EST 1,664.37 1,277.73 10,375
12/11/2018 8 PM EST 1,664.35 1,277.73 10,377
12/11/2018 9 PM EST 1,664.30 1,277.79 10,372
12/11/2018 10 PM EST 1,664.25 1,277.75 10,370
12/11/2018 11 PM EST 1,664.21 1,277.82 10,377
12/12/2018 12 AM EST 1,664.19 1,277.77 10,379
12/12/2018 1 AM EST 1,664.14 1,277.81 10,371
12/12/2018 2 AM EST 1,664.09 1,277.76 10,365
12/12/2018 3 AM EST 1,664.05 1,277.79 10,363

Elevations are in feet above sea level. Discharges are in cubic feet per second and are reported at the end of the hour.